Time;durP1;ratioP1;P1;durP2;ratioP2;P2;SDS_P1;SDS_P2;PMS_P1;PMS_P2;Temp;Humidity;BMP_temperature;BMP_pressure;BME280_temperature;BME280_humidity;BME280_pressure;Samples;Min_cycle;Max_cycle;Signal;HPM_P1;HPM_P2
2023/04/02 00:03:02;;;;;;;0.40;0.35;;;;;;;;;;5019326;28;20064;-44
2023/04/02 00:05:50;;;;;;;1.55;0.40;;;;;;;;;;4964980;28;20751;-41
2023/04/02 00:08:39;;;;;;;0.50;0.50;;;;;;;;;;4998553;28;20053;-41
2023/04/02 00:11:06;;;;;;;0.68;0.50;;;;;;;;;;5020600;28;20071;-41
2023/04/02 00:13:47;;;;;;;0.85;0.65;;;;;;;;;;5022943;28;20046;-41
2023/04/02 00:16:23;;;;;;;1.65;0.60;;;;;;;;;;5023223;28;20052;-41
2023/04/02 00:18:52;;;;;;;0.30;0.30;;;;;;;;;;5022414;28;20029;-42
2023/04/02 00:21:28;;;;;;;0.38;0.38;;;;;;;;;;5021916;28;20041;-41
2023/04/02 00:23:55;;;;;;;1.23;0.60;;;;;;;;;;5022106;28;20041;-42
2023/04/02 00:26:31;;;;;;;1.08;0.50;;;;;;;;;;5020015;28;20057;-45
2023/04/02 00:28:59;;;;;;;0.75;0.40;;;;;;;;;;5023017;28;20082;-41
2023/04/02 00:31:25;;;;;;;2.70;0.60;;;;;;;;;;5021776;28;20506;-41
2023/04/02 00:33:51;;;;;;;0.60;0.50;;;;;;;;;;5007113;28;20363;-42
2023/04/02 00:36:22;;;;;;;0.50;0.38;;;;;;;;;;5051139;28;20047;-46
2023/04/02 00:38:48;;;;;;;3.08;0.50;;;;;;;;;;5058337;28;20100;-44
2023/04/02 00:41:18;;;;;;;0.47;0.47;;;;;;;;;;5058235;28;20124;-40
2023/04/02 00:43:52;;;;;;;0.60;0.40;;;;;;;;;;5057303;28;20028;-40
2023/04/02 00:46:22;;;;;;;0.63;0.50;;;;;;;;;;5057029;28;20037;-41
2023/04/02 00:48:53;;;;;;;0.68;0.68;;;;;;;;;;5063852;28;20070;-43
2023/04/02 00:51:24;;;;;;;0.40;0.40;;;;;;;;;;5046433;28;20624;-43
2023/04/02 00:53:52;;;;;;;1.13;0.47;;;;;;;;;;5042538;28;20029;-40
2023/04/02 00:56:27;;;;;;;2.90;0.52;;;;;;;;;;5043816;28;20033;-41
2023/04/02 00:58:55;;;;;;;0.52;0.40;;;;;;;;;;5038097;28;20041;-41
2023/04/02 01:01:28;;;;;;;0.93;0.43;;;;;;;;;;5039348;28;20056;-40
2023/04/02 01:03:59;;;;;;;0.35;0.30;;;;;;;;;;5044438;28;20051;-40
2023/04/02 01:06:29;;;;;;;0.40;0.40;;;;;;;;;;5042746;28;20162;-40
2023/04/02 01:09:15;;;;;;;0.50;0.40;;;;;;;;;;5042873;28;20040;-41
2023/04/02 01:11:40;;;;;;;0.65;0.43;;;;;;;;;;5043325;28;20041;-41
2023/04/02 01:14:29;;;;;;;1.33;0.60;;;;;;;;;;5042441;28;20041;-41
2023/04/02 01:17:32;;;;;;;0.70;0.57;;;;;;;;;;5041484;28;20045;-42
2023/04/02 01:20:35;;;;;;;0.55;0.50;;;;;;;;;;5040804;28;20037;-43
2023/04/02 01:23:12;;;;;;;3.75;0.60;;;;;;;;;;5062239;28;20135;-41
2023/04/02 01:25:37;;;;;;;2.08;0.52;;;;;;;;;;5058184;28;20033;-40
2023/04/02 01:28:07;;;;;;;0.57;0.57;;;;;;;;;;5056781;28;20509;-40
2023/04/02 01:30:34;;;;;;;0.82;0.68;;;;;;;;;;5059379;28;20072;-41
2023/04/02 01:33:00;;;;;;;0.75;0.60;;;;;;;;;;5056868;28;20095;-40
2023/04/02 01:35:31;;;;;;;0.30;0.30;;;;;;;;;;5052396;28;20562;-41
2023/04/02 01:38:10;;;;;;;5.97;0.70;;;;;;;;;;5046471;28;20087;-40
2023/04/02 01:40:51;;;;;;;13.93;1.02;;;;;;;;;;5058328;28;20045;-41
2023/04/02 01:43:37;;;;;;;1.38;0.77;;;;;;;;;;5042434;28;20905;-41
2023/04/02 01:46:41;;;;;;;0.95;0.63;;;;;;;;;;5041731;28;20412;-40
2023/04/02 01:49:14;;;;;;;2.17;0.52;;;;;;;;;;5021072;28;20148;-40
2023/04/02 01:51:45;;;;;;;1.95;0.60;;;;;;;;;;5041649;28;20057;-40
2023/04/02 01:54:14;;;;;;;5.38;0.52;;;;;;;;;;5051220;28;20029;-41
2023/04/02 01:56:41;;;;;;;5.50;0.70;;;;;;;;;;5056952;28;20033;-42
2023/04/02 01:59:09;;;;;;;4.40;0.90;;;;;;;;;;5049206;28;20593;-40
2023/04/02 02:01:51;;;;;;;1.23;0.70;;;;;;;;;;5038469;28;20051;-43
2023/04/02 02:04:17;;;;;;;2.90;0.60;;;;;;;;;;5025960;28;20038;-41
2023/04/02 02:06:44;;;;;;;6.82;0.60;;;;;;;;;;5054877;28;20101;-40
2023/04/02 02:09:17;;;;;;;0.70;0.70;;;;;;;;;;5062814;28;20032;-41
2023/04/02 02:11:42;;;;;;;1.75;0.75;;;;;;;;;;5067038;28;20929;-42
2023/04/02 02:14:20;;;;;;;2.38;0.73;;;;;;;;;;5066038;28;20155;-40
2023/04/02 02:16:46;;;;;;;3.67;0.60;;;;;;;;;;5064748;28;20044;-41
2023/04/02 02:19:59;;;;;;;4.63;0.68;;;;;;;;;;5063349;28;20470;-40
2023/04/02 02:22:34;;;;;;;4.60;0.60;;;;;;;;;;5043785;28;20053;-42
2023/04/02 02:25:02;;;;;;;0.75;0.57;;;;;;;;;;5059782;28;20029;-39
2023/04/02 02:27:27;;;;;;;2.92;0.82;;;;;;;;;;5044272;28;20033;-41
2023/04/02 02:29:54;;;;;;;1.55;0.77;;;;;;;;;;5041699;28;20021;-41
2023/04/02 02:32:22;;;;;;;0.60;0.60;;;;;;;;;;5049509;28;20041;-40
2023/04/02 02:34:55;;;;;;;2.35;0.73;;;;;;;;;;5047151;28;20032;-41
2023/04/02 02:37:29;;;;;;;3.13;0.68;;;;;;;;;;5046520;28;20056;-40
2023/04/02 02:39:57;;;;;;;6.43;1.05;;;;;;;;;;5045890;28;20053;-40
2023/04/02 02:42:39;;;;;;;1.38;0.63;;;;;;;;;;5044308;28;20049;-41
2023/04/02 02:45:11;;;;;;;3.42;0.70;;;;;;;;;;5044428;28;20025;-41
2023/04/02 02:47:40;;;;;;;1.02;0.65;;;;;;;;;;5045257;28;20016;-40
2023/04/02 02:50:13;;;;;;;2.25;0.80;;;;;;;;;;5039693;28;20478;-42
2023/04/02 02:52:43;;;;;;;0.63;0.52;;;;;;;;;;5045080;28;20029;-40
2023/04/02 02:55:15;;;;;;;8.20;0.70;;;;;;;;;;5045565;28;20047;-45
2023/04/02 02:57:51;;;;;;;2.10;0.73;;;;;;;;;;5047187;28;20382;-40
2023/04/02 03:00:18;;;;;;;1.17;0.52;;;;;;;;;;5045056;28;20029;-40
2023/04/02 03:02:45;;;;;;;1.20;1.00;;;;;;;;;;5048842;28;20370;-43
2023/04/02 03:05:20;;;;;;;1.13;0.85;;;;;;;;;;5046819;28;20569;-41
2023/04/02 03:07:47;;;;;;;2.15;0.70;;;;;;;;;;5045457;28;20035;-41
2023/04/02 03:10:18;;;;;;;0.95;0.60;;;;;;;;;;5043602;28;20473;-40
2023/04/02 03:12:53;;;;;;;1.17;0.75;;;;;;;;;;5035780;28;20046;-41
2023/04/02 03:15:24;;;;;;;1.45;0.68;;;;;;;;;;5037547;28;20041;-41
2023/04/02 03:17:59;;;;;;;5.07;1.63;;;;;;;;;;5049107;28;20055;-43
2023/04/02 03:20:38;;;;;;;1.67;0.80;;;;;;;;;;5047830;28;20041;-40
2023/04/02 03:23:22;;;;;;;0.93;0.80;;;;;;;;;;5045148;28;20037;-42
2023/04/02 03:26:03;;;;;;;2.72;0.60;;;;;;;;;;5044288;28;20169;-41
2023/04/02 03:28:32;;;;;;;4.18;1.05;;;;;;;;;;5057771;28;20027;-45
2023/04/02 03:31:03;;;;;;;6.07;0.68;;;;;;;;;;5062265;28;20040;-47
2023/04/02 03:33:41;;;;;;;0.85;0.57;;;;;;;;;;5057685;28;20504;-44
2023/04/02 03:36:18;;;;;;;0.85;0.73;;;;;;;;;;5054534;28;20051;-47
2023/04/02 03:38:50;;;;;;;0.60;0.60;;;;;;;;;;5047719;28;20025;-44
2023/04/02 03:41:30;;;;;;;1.60;0.50;;;;;;;;;;5042116;28;20029;-40
2023/04/02 03:44:00;;;;;;;0.93;0.52;;;;;;;;;;5043960;28;20493;-41
2023/04/02 03:46:35;;;;;;;1.75;0.90;;;;;;;;;;5052252;28;20036;-41
2023/04/02 03:49:06;;;;;;;2.40;0.57;;;;;;;;;;5064336;28;20021;-40
2023/04/02 03:51:38;;;;;;;1.20;0.55;;;;;;;;;;5050397;28;20041;-42
2023/04/02 03:54:04;;;;;;;1.00;0.50;;;;;;;;;;5043562;28;20474;-42
2023/04/02 03:56:38;;;;;;;2.40;0.52;;;;;;;;;;5047075;28;20036;-44
2023/04/02 03:59:15;;;;;;;1.17;0.70;;;;;;;;;;5044633;28;20036;-41
2023/04/02 04:01:54;;;;;;;1.67;0.57;;;;;;;;;;5058742;28;20047;-43
2023/04/02 04:04:21;;;;;;;1.02;0.50;;;;;;;;;;5055633;28;20035;-41
2023/04/02 04:06:51;;;;;;;0.90;0.50;;;;;;;;;;5059684;28;20036;-43
2023/04/02 04:09:35;;;;;;;1.85;0.40;;;;;;;;;;5061421;28;20107;-40
2023/04/02 04:12:11;;;;;;;1.83;0.60;;;;;;;;;;5060720;28;20662;-40
2023/04/02 04:14:42;;;;;;;0.45;0.45;;;;;;;;;;5059050;28;20037;-40
2023/04/02 04:17:08;;;;;;;1.23;0.55;;;;;;;;;;5060016;28;20032;-43
2023/04/02 04:19:48;;;;;;;1.13;0.50;;;;;;;;;;5057294;28;20032;-47
2023/04/02 04:22:28;;;;;;;2.25;0.40;;;;;;;;;;5059403;28;20136;-44
2023/04/02 04:24:58;;;;;;;0.77;0.40;;;;;;;;;;5059779;28;20034;-42
2023/04/02 04:27:33;;;;;;;2.17;0.60;;;;;;;;;;5056757;28;20036;-42
2023/04/02 04:30:13;;;;;;;3.15;0.77;;;;;;;;;;5060177;28;20013;-41
2023/04/02 04:32:49;;;;;;;0.35;0.35;;;;;;;;;;5076001;28;20040;-48
2023/04/02 04:35:29;;;;;;;0.90;0.65;;;;;;;;;;5056200;28;20024;-41
2023/04/02 04:38:10;;;;;;;1.17;0.60;;;;;;;;;;5058439;28;20042;-48
2023/04/02 04:40:43;;;;;;;0.68;0.55;;;;;;;;;;5061577;28;20046;-40
2023/04/02 04:43:18;;;;;;;0.85;0.70;;;;;;;;;;5062963;28;20116;-40
2023/04/02 04:45:49;;;;;;;1.65;0.45;;;;;;;;;;5057816;28;20462;-43
2023/04/02 04:48:17;;;;;;;1.58;0.47;;;;;;;;;;5056459;28;20040;-45
2023/04/02 04:50:53;;;;;;;2.60;0.57;;;;;;;;;;5062344;28;20040;-44
2023/04/02 04:53:23;;;;;;;1.05;0.70;;;;;;;;;;5060380;28;20036;-41
2023/04/02 04:55:51;;;;;;;1.33;0.70;;;;;;;;;;5053268;28;20064;-40
2023/04/02 04:58:31;;;;;;;0.95;0.45;;;;;;;;;;5056995;28;20020;-40
2023/04/02 05:01:13;;;;;;;1.27;0.70;;;;;;;;;;5060405;28;20049;-41
2023/04/02 05:04:03;;;;;;;1.13;0.37;;;;;;;;;;5058509;28;20469;-40
2023/04/02 05:06:34;;;;;;;1.33;0.60;;;;;;;;;;5060508;28;20553;-40
2023/04/02 05:09:23;;;;;;;1.13;0.70;;;;;;;;;;5055143;28;20044;-43
2023/04/02 05:12:15;;;;;;;1.67;0.60;;;;;;;;;;5059815;28;20040;-41
2023/04/02 05:14:44;;;;;;;2.97;0.70;;;;;;;;;;5060628;28;20052;-47
2023/04/02 05:17:35;;;;;;;1.25;0.43;;;;;;;;;;5059365;28;20048;-42
2023/04/02 05:20:17;;;;;;;1.45;0.47;;;;;;;;;;5061780;28;21476;-39
2023/04/02 05:22:47;;;;;;;0.90;0.52;;;;;;;;;;5053772;28;20041;-42
2023/04/02 05:25:22;;;;;;;1.35;0.60;;;;;;;;;;5057412;28;20051;-44
2023/04/02 05:28:16;;;;;;;5.15;0.65;;;;;;;;;;5056122;28;20024;-40
2023/04/02 05:30:53;;;;;;;1.83;0.60;;;;;;;;;;5061776;28;20071;-43
2023/04/02 05:33:26;;;;;;;6.03;0.73;;;;;;;;;;5059506;28;20428;-41
2023/04/02 05:35:57;;;;;;;4.68;0.73;;;;;;;;;;5060358;28;20033;-42
2023/04/02 05:38:26;;;;;;;2.10;0.60;;;;;;;;;;5052883;28;20021;-48
2023/04/02 05:41:03;;;;;;;1.20;0.60;;;;;;;;;;5055986;28;20071;-47
2023/04/02 05:43:32;;;;;;;0.85;0.60;;;;;;;;;;5068079;28;20028;-44
2023/04/02 05:46:03;;;;;;;1.30;0.70;;;;;;;;;;5061179;28;20123;-45
2023/04/02 05:48:38;;;;;;;0.68;0.57;;;;;;;;;;5063087;28;20028;-42
2023/04/02 05:51:07;;;;;;;1.27;0.85;;;;;;;;;;5061292;28;20390;-46
2023/04/02 05:53:38;;;;;;;2.28;0.50;;;;;;;;;;5058350;28;20032;-47
2023/04/02 05:56:24;;;;;;;0.60;0.60;;;;;;;;;;5064421;28;20496;-46
2023/04/02 05:58:55;;;;;;;2.15;0.60;;;;;;;;;;5061825;28;20090;-40
2023/04/02 06:01:38;;;;;;;1.08;0.32;;;;;;;;;;5063201;28;20040;-47
2023/04/02 06:04:18;;;;;;;4.20;0.70;;;;;;;;;;5061631;28;20036;-41
2023/04/02 06:06:57;;;;;;;1.58;0.60;;;;;;;;;;5057718;28;20040;-43
2023/04/02 06:09:26;;;;;;;3.03;0.60;;;;;;;;;;5059624;28;20027;-45
2023/04/02 06:12:03;;;;;;;1.30;0.50;;;;;;;;;;5065175;28;20404;-41
2023/04/02 06:14:28;;;;;;;3.22;0.68;;;;;;;;;;5056864;28;20048;-47
2023/04/02 06:16:54;;;;;;;1.08;0.60;;;;;;;;;;5049360;28;20536;-40
2023/04/02 06:19:30;;;;;;;2.13;0.50;;;;;;;;;;5047198;28;20075;-44
2023/04/02 06:22:27;;;;;;;6.22;0.80;;;;;;;;;;5043886;28;20497;-47
2023/04/02 06:25:00;;;;;;;1.70;0.57;;;;;;;;;;5045565;28;20505;-44
2023/04/02 06:27:26;;;;;;;0.90;0.80;;;;;;;;;;5058155;28;20123;-45
2023/04/02 06:29:57;;;;;;;0.80;0.60;;;;;;;;;;5061141;28;20491;-43
2023/04/02 06:32:25;;;;;;;1.33;0.43;;;;;;;;;;5058789;28;20033;-45
2023/04/02 06:34:51;;;;;;;0.88;0.60;;;;;;;;;;5064784;28;20029;-48
2023/04/02 06:37:34;;;;;;;1.00;0.70;;;;;;;;;;5065668;28;20036;-45
2023/04/02 06:40:01;;;;;;;0.82;0.65;;;;;;;;;;5059296;28;20043;-45
2023/04/02 06:42:47;;;;;;;3.88;0.70;;;;;;;;;;5064213;28;20032;-47
2023/04/02 06:45:19;;;;;;;0.63;0.63;;;;;;;;;;5060731;28;20032;-42
2023/04/02 06:47:48;;;;;;;0.55;0.55;;;;;;;;;;5059225;28;20029;-44
2023/04/02 06:50:17;;;;;;;0.68;0.68;;;;;;;;;;5059103;28;20037;-41
2023/04/02 06:52:53;;;;;;;1.67;1.00;;;;;;;;;;5059229;28;20016;-44
2023/04/02 06:55:19;;;;;;;3.00;0.65;;;;;;;;;;5056657;28;22736;-41
2023/04/02 06:57:45;;;;;;;8.48;0.77;;;;;;;;;;5064727;28;20025;-50
2023/04/02 07:00:41;;;;;;;1.65;0.60;;;;;;;;;;5059725;28;20056;-44
2023/04/02 07:03:14;;;;;;;2.38;0.65;;;;;;;;;;5061530;28;20124;-42
2023/04/02 07:05:40;;;;;;;1.63;0.50;;;;;;;;;;5060672;28;20041;-49
2023/04/02 07:08:06;;;;;;;5.35;0.95;;;;;;;;;;5059412;28;20458;-41
2023/04/02 07:10:32;;;;;;;2.05;0.57;;;;;;;;;;5060521;28;20459;-44
2023/04/02 07:12:57;;;;;;;1.05;0.50;;;;;;;;;;5059554;28;20147;-47
2023/04/02 07:15:24;;;;;;;2.20;0.60;;;;;;;;;;5064763;28;20059;-49
2023/04/02 07:17:50;;;;;;;1.48;0.50;;;;;;;;;;5061793;28;20028;-41
2023/04/02 07:20:36;;;;;;;1.65;0.50;;;;;;;;;;5060777;28;20017;-41
2023/04/02 07:23:02;;;;;;;1.30;0.63;;;;;;;;;;5058389;28;20032;-41
2023/04/02 07:25:27;;;;;;;2.75;1.15;;;;;;;;;;5052822;28;20106;-44
2023/04/02 07:27:53;;;;;;;1.00;0.77;;;;;;;;;;5045272;28;20485;-40
2023/04/02 07:30:18;;;;;;;2.55;0.60;;;;;;;;;;5046788;28;20037;-40
2023/04/02 07:32:44;;;;;;;0.30;0.30;;;;;;;;;;5049910;28;20120;-40
2023/04/02 07:35:10;;;;;;;4.80;0.57;;;;;;;;;;5052804;28;20032;-40
2023/04/02 07:37:37;;;;;;;1.67;0.70;;;;;;;;;;5049361;28;20493;-40
2023/04/02 07:40:09;;;;;;;1.00;0.60;;;;;;;;;;5048056;28;20025;-41
2023/04/02 07:42:34;;;;;;;0.30;0.30;;;;;;;;;;5040680;28;20029;-41
2023/04/02 07:45:00;;;;;;;1.00;0.73;;;;;;;;;;5033997;28;20042;-42
2023/04/02 07:47:25;;;;;;;3.38;0.57;;;;;;;;;;5045078;28;20025;-41
2023/04/02 07:49:53;;;;;;;3.45;0.70;;;;;;;;;;5044638;28;20044;-42
2023/04/02 07:52:19;;;;;;;1.85;0.68;;;;;;;;;;5039929;28;20903;-42
2023/04/02 07:54:45;;;;;;;0.57;0.57;;;;;;;;;;5035292;28;20432;-42
2023/04/02 07:57:10;;;;;;;3.05;0.68;;;;;;;;;;5038535;28;20041;-41
2023/04/02 07:59:36;;;;;;;2.38;0.65;;;;;;;;;;5037065;28;20041;-42
2023/04/02 08:02:01;;;;;;;1.83;1.00;;;;;;;;;;5040284;28;20041;-41
2023/04/02 08:04:27;;;;;;;0.80;0.65;;;;;;;;;;5043698;28;20060;-41
2023/04/02 08:06:52;;;;;;;2.22;0.40;;;;;;;;;;5046096;28;20571;-41
2023/04/02 08:09:17;;;;;;;1.27;0.47;;;;;;;;;;5042947;28;20553;-41
2023/04/02 08:11:45;;;;;;;1.25;0.38;;;;;;;;;;5043770;28;20511;-40
2023/04/02 08:14:10;;;;;;;3.17;0.75;;;;;;;;;;5039311;28;20045;-43
2023/04/02 08:17:05;;;;;;;1.75;0.60;;;;;;;;;;5043771;28;20048;-44
2023/04/02 08:19:32;;;;;;;3.20;0.50;;;;;;;;;;5029434;28;21707;-41
2023/04/02 08:21:58;;;;;;;1.13;0.57;;;;;;;;;;5042883;28;20037;-41
2023/04/02 08:24:23;;;;;;;4.15;0.60;;;;;;;;;;5040425;28;20033;-41
2023/04/02 08:26:50;;;;;;;0.28;0.28;;;;;;;;;;5045142;28;20500;-42
2023/04/02 08:29:15;;;;;;;5.63;0.90;;;;;;;;;;5040356;28;20032;-42
2023/04/02 08:31:41;;;;;;;8.25;0.80;;;;;;;;;;5033745;28;20087;-41
2023/04/02 08:34:06;;;;;;;1.15;0.80;;;;;;;;;;5038377;28;20045;-42
2023/04/02 08:36:35;;;;;;;1.63;0.45;;;;;;;;;;5039619;28;20520;-41
2023/04/02 08:39:01;;;;;;;0.38;0.25;;;;;;;;;;5040018;28;20102;-41
2023/04/02 08:41:27;;;;;;;2.75;0.60;;;;;;;;;;5039484;28;20444;-41
2023/04/02 08:44:16;;;;;;;3.90;0.88;;;;;;;;;;5038797;28;20120;-41
2023/04/02 08:46:55;;;;;;;5.70;1.63;;;;;;;;;;5038618;28;20045;-45
2023/04/02 08:49:33;;;;;;;3.97;1.25;;;;;;;;;;5042790;28;20033;-41
2023/04/02 08:51:59;;;;;;;4.60;0.82;;;;;;;;;;5036956;28;20406;-41
2023/04/02 08:54:30;;;;;;;3.47;0.90;;;;;;;;;;5038683;28;20037;-41
2023/04/02 08:57:03;;;;;;;1.80;0.70;;;;;;;;;;5044066;28;20684;-41
2023/04/02 08:59:40;;;;;;;4.18;0.50;;;;;;;;;;5046195;28;20033;-41
2023/04/02 09:02:31;;;;;;;5.70;0.45;;;;;;;;;;5036290;28;20037;-45
2023/04/02 09:04:58;;;;;;;2.13;0.50;;;;;;;;;;5046712;28;20592;-42
2023/04/02 09:07:25;;;;;;;0.50;0.40;;;;;;;;;;5044858;28;20044;-42
2023/04/02 09:09:51;;;;;;;0.60;0.30;;;;;;;;;;5063802;28;20398;-42
2023/04/02 09:12:20;;;;;;;6.80;0.70;;;;;;;;;;5044126;28;20037;-42
2023/04/02 09:15:10;;;;;;;2.03;0.40;;;;;;;;;;5044009;28;20055;-41
2023/04/02 09:17:38;;;;;;;0.98;0.45;;;;;;;;;;5065230;28;20056;-42
2023/04/02 09:20:18;;;;;;;0.20;0.20;;;;;;;;;;5063140;28;20047;-42
2023/04/02 09:22:45;;;;;;;1.88;0.63;;;;;;;;;;5062963;28;20029;-43
2023/04/02 09:25:25;;;;;;;1.05;0.43;;;;;;;;;;5060197;28;20397;-41
2023/04/02 09:27:53;;;;;;;3.92;0.73;;;;;;;;;;5063296;28;20037;-41
2023/04/02 09:30:30;;;;;;;1.30;0.20;;;;;;;;;;5060643;28;20039;-41
2023/04/02 09:33:06;;;;;;;8.27;0.75;;;;;;;;;;5057368;28;20075;-41
2023/04/02 09:35:56;;;;;;;5.82;0.65;;;;;;;;;;5063124;28;20039;-41
2023/04/02 09:38:31;;;;;;;2.22;0.38;;;;;;;;;;5061999;28;20044;-41
2023/04/02 09:41:03;;;;;;;5.40;0.63;;;;;;;;;;5061444;28;20112;-41
2023/04/02 09:43:34;;;;;;;1.90;0.20;;;;;;;;;;5067624;28;20035;-41
2023/04/02 09:46:12;;;;;;;1.73;0.30;;;;;;;;;;5066414;28;20036;-42
2023/04/02 09:48:42;;;;;;;2.42;1.20;;;;;;;;;;5066503;28;20030;-41
2023/04/02 09:51:14;;;;;;;2.05;0.43;;;;;;;;;;5064439;28;20040;-42
2023/04/02 09:53:45;;;;;;;6.57;1.02;;;;;;;;;;5061674;28;20029;-43
2023/04/02 09:56:14;;;;;;;4.38;0.60;;;;;;;;;;5060749;28;20097;-45
2023/04/02 09:58:41;;;;;;;2.47;0.45;;;;;;;;;;5057507;28;20032;-42
2023/04/02 10:01:28;;;;;;;7.35;0.40;;;;;;;;;;5056670;28;20045;-42
2023/04/02 10:03:54;;;;;;;5.22;0.50;;;;;;;;;;5060775;28;20049;-41
2023/04/02 10:06:19;;;;;;;1.83;0.38;;;;;;;;;;5063094;28;20040;-41
2023/04/02 10:08:46;;;;;;;9.15;0.55;;;;;;;;;;5063191;28;20028;-50
2023/04/02 10:11:17;;;;;;;1.63;0.40;;;;;;;;;;5062926;28;20079;-46
2023/04/02 10:14:00;;;;;;;1.80;0.65;;;;;;;;;;5059279;28;20091;-43
2023/04/02 10:16:41;;;;;;;3.05;0.40;;;;;;;;;;5057744;28;20040;-41
2023/04/02 10:19:25;;;;;;;3.65;0.80;;;;;;;;;;5055363;28;20036;-44
2023/04/02 10:21:52;;;;;;;1.80;0.60;;;;;;;;;;5054530;28;20041;-43
2023/04/02 10:24:18;;;;;;;3.42;0.40;;;;;;;;;;5059310;28;20439;-42
2023/04/02 10:27:17;;;;;;;11.50;0.95;;;;;;;;;;5055653;28;20040;-45
2023/04/02 10:29:54;;;;;;;0.40;0.40;;;;;;;;;;5061380;28;20043;-42
2023/04/02 10:32:38;;;;;;;3.25;1.17;;;;;;;;;;5059778;28;20044;-41
2023/04/02 10:35:18;;;;;;;0.30;0.30;;;;;;;;;;5062080;28;20028;-42
2023/04/02 10:37:46;;;;;;;4.32;0.52;;;;;;;;;;5063504;28;20029;-42
2023/04/02 10:40:14;;;;;;;2.10;0.30;;;;;;;;;;5061762;28;20025;-45
2023/04/02 10:42:52;;;;;;;3.65;0.45;;;;;;;;;;5060985;28;20032;-42
2023/04/02 10:45:35;;;;;;;3.58;0.50;;;;;;;;;;5062441;28;20040;-45
2023/04/02 10:48:11;;;;;;;1.58;0.70;;;;;;;;;;5056976;28;20508;-42
2023/04/02 10:50:57;;;;;;;20.63;1.13;;;;;;;;;;5052776;28;20201;-42
2023/04/02 10:53:46;;;;;;;1.95;0.60;;;;;;;;;;5042355;28;20478;-41
2023/04/02 10:56:13;;;;;;;11.27;0.75;;;;;;;;;;5041966;28;20151;-41
2023/04/02 10:58:52;;;;;;;3.72;0.50;;;;;;;;;;5048063;28;20036;-42
2023/04/02 11:01:25;;;;;;;6.63;0.50;;;;;;;;;;5050184;28;20401;-46
2023/04/02 11:04:20;;;;;;;3.33;0.50;;;;;;;;;;5056409;28;20086;-46
2023/04/02 11:06:57;;;;;;;3.92;0.40;;;;;;;;;;5040153;28;20037;-41
2023/04/02 11:09:30;;;;;;;3.97;0.50;;;;;;;;;;5041005;28;20028;-42
2023/04/02 11:11:59;;;;;;;0.55;0.45;;;;;;;;;;5040657;28;20076;-41
2023/04/02 11:14:27;;;;;;;9.35;0.70;;;;;;;;;;5044348;28;20056;-41
2023/04/02 11:16:55;;;;;;;4.72;0.50;;;;;;;;;;5042421;28;20112;-45
2023/04/02 11:19:25;;;;;;;5.32;0.60;;;;;;;;;;5044435;28;20033;-41
2023/04/02 11:22:03;;;;;;;2.33;0.50;;;;;;;;;;5039002;28;20045;-42
2023/04/02 11:24:41;;;;;;;11.32;0.68;;;;;;;;;;5045128;28;20774;-43
2023/04/02 11:27:16;;;;;;;2.08;0.40;;;;;;;;;;5042294;28;20052;-42
2023/04/02 11:30:02;;;;;;;5.72;0.43;;;;;;;;;;5046784;28;20021;-42
2023/04/02 11:32:38;;;;;;;2.22;0.38;;;;;;;;;;5057653;28;20127;-42
2023/04/02 11:35:31;;;;;;;2.20;0.47;;;;;;;;;;5053604;28;20054;-42
2023/04/02 11:37:59;;;;;;;1.65;0.38;;;;;;;;;;5057267;28;20032;-42
2023/04/02 11:40:50;;;;;;;3.25;0.30;;;;;;;;;;5053279;28;20522;-42
2023/04/02 11:43:34;;;;;;;3.38;0.52;;;;;;;;;;5060878;28;20063;-41
2023/04/02 11:46:14;;;;;;;1.85;0.60;;;;;;;;;;5057202;28;20047;-43
2023/04/02 11:48:40;;;;;;;4.47;0.32;;;;;;;;;;5055989;28;20107;-41
2023/04/02 11:51:21;;;;;;;2.17;0.43;;;;;;;;;;5048622;28;20124;-42
2023/04/02 11:53:48;;;;;;;3.08;0.50;;;;;;;;;;5052387;28;20031;-42
2023/04/02 11:56:51;;;;;;;12.27;1.80;;;;;;;;;;5050888;28;20036;-41
2023/04/02 11:59:31;;;;;;;1.92;0.40;;;;;;;;;;5044298;28;20555;-42
2023/04/02 12:02:12;;;;;;;1.58;0.30;;;;;;;;;;5038477;28;20033;-45
2023/04/02 12:05:08;;;;;;;3.60;0.40;;;;;;;;;;5038016;28;20037;-41
2023/04/02 12:08:07;;;;;;;3.13;0.40;;;;;;;;;;5058524;28;20558;-42
2023/04/02 12:10:56;;;;;;;1.35;0.40;;;;;;;;;;5061231;28;20512;-41
2023/04/02 12:13:40;;;;;;;2.63;0.60;;;;;;;;;;5059473;28;20049;-44
2023/04/02 12:16:07;;;;;;;2.30;0.93;;;;;;;;;;5062099;28;20071;-43
2023/04/02 12:18:33;;;;;;;2.10;0.60;;;;;;;;;;5059481;28;20420;-44
2023/04/02 12:20:59;;;;;;;2.83;0.40;;;;;;;;;;5055823;28;20041;-43
2023/04/02 12:23:30;;;;;;;1.23;0.10;;;;;;;;;;5047106;28;21027;-43
2023/04/02 12:26:02;;;;;;;1.55;0.35;;;;;;;;;;5047108;28;20144;-42
2023/04/02 12:28:28;;;;;;;;;;;;;;;;;;5043779;28;20391;-42
2023/04/02 12:31:02;;;;;;;3.67;0.30;;;;;;;;;;5048408;28;19932;-42
2023/04/02 12:33:32;;;;;;;2.67;0.50;;;;;;;;;;5050867;28;20040;-41
2023/04/02 12:36:00;;;;;;;7.65;0.55;;;;;;;;;;5056085;28;20067;-43
2023/04/02 12:38:35;;;;;;;13.93;0.98;;;;;;;;;;5054191;28;20047;-43
2023/04/02 12:41:04;;;;;;;1.13;0.22;;;;;;;;;;5048248;28;20076;-45
2023/04/02 12:43:33;;;;;;;3.85;0.40;;;;;;;;;;5060360;28;20292;-41
2023/04/02 12:46:01;;;;;;;7.93;0.70;;;;;;;;;;5055057;28;20072;-41
2023/04/02 12:48:29;;;;;;;1.15;0.40;;;;;;;;;;5059377;28;20032;-40
2023/04/02 12:50:56;;;;;;;1.65;0.50;;;;;;;;;;5053746;28;20044;-42
2023/04/02 12:53:27;;;;;;;3.70;0.38;;;;;;;;;;5058065;28;20119;-42
2023/04/02 12:55:53;;;;;;;0.52;0.40;;;;;;;;;;5051976;28;20094;-42
2023/04/02 12:58:28;;;;;;;2.85;0.45;;;;;;;;;;5058077;28;20060;-42
2023/04/02 13:01:12;;;;;;;12.38;0.80;;;;;;;;;;5054861;28;20501;-40
2023/04/02 13:03:37;;;;;;;3.67;0.40;;;;;;;;;;5058273;28;20047;-48
2023/04/02 13:06:12;;;;;;;10.18;0.82;;;;;;;;;;5052613;28;20045;-44
2023/04/02 13:08:41;;;;;;;6.93;0.70;;;;;;;;;;5060940;28;20389;-45
2023/04/02 13:11:06;;;;;;;8.75;0.50;;;;;;;;;;5054242;28;20045;-41
2023/04/02 13:13:37;;;;;;;0.28;0.20;;;;;;;;;;5051960;28;20109;-40
2023/04/02 13:16:13;;;;;;;6.13;0.52;;;;;;;;;;5051536;28;20040;-43
2023/04/02 13:18:38;;;;;;;3.80;0.50;;;;;;;;;;5055200;28;20362;-42
2023/04/02 13:21:22;;;;;;;11.57;1.15;;;;;;;;;;5051176;28;20033;-40
2023/04/02 13:23:47;;;;;;;3.25;0.40;;;;;;;;;;5053467;28;20043;-41
2023/04/02 13:26:21;;;;;;;8.55;0.70;;;;;;;;;;5054328;28;20048;-41
2023/04/02 13:28:56;;;;;;;3.00;0.40;;;;;;;;;;5053367;28;20116;-46
2023/04/02 13:31:21;;;;;;;1.15;0.22;;;;;;;;;;5051239;28;20038;-40
2023/04/02 13:33:47;;;;;;;1.83;0.57;;;;;;;;;;5048503;28;20078;-43
2023/04/02 13:36:13;;;;;;;6.47;1.75;;;;;;;;;;5039095;28;20398;-40
2023/04/02 13:38:40;;;;;;;4.28;0.40;;;;;;;;;;5039576;28;20474;-45
2023/04/02 13:41:16;;;;;;;4.43;0.57;;;;;;;;;;5038283;28;20941;-41
2023/04/02 13:43:41;;;;;;;8.63;0.65;;;;;;;;;;5039855;28;20039;-41
2023/04/02 13:46:07;;;;;;;1.02;0.22;;;;;;;;;;5040927;28;20049;-40
2023/04/02 13:48:33;;;;;;;2.38;0.73;;;;;;;;;;5039839;28;20033;-45
2023/04/02 13:50:58;;;;;;;1.27;0.45;;;;;;;;;;5046802;28;20037;-40
2023/04/02 13:53:30;;;;;;;5.85;0.75;;;;;;;;;;5047043;28;20422;-42
2023/04/02 13:55:55;;;;;;;2.08;0.50;;;;;;;;;;5047722;28;20045;-42
2023/04/02 13:58:21;;;;;;;2.55;0.50;;;;;;;;;;5047697;28;20489;-40
2023/04/02 14:00:47;;;;;;;1.00;0.32;;;;;;;;;;5054560;28;20058;-40
2023/04/02 14:03:17;;;;;;;6.13;0.50;;;;;;;;;;5061509;28;20032;-41
2023/04/02 14:05:48;;;;;;;1.35;0.38;;;;;;;;;;5057438;28;20040;-39
2023/04/02 14:08:44;;;;;;;0.73;0.53;;;;;;;;;;5065199;28;20021;-46
2023/04/02 14:11:22;;;;;;;0.50;0.50;;;;;;;;;;5059259;28;20033;-42
2023/04/02 14:14:06;;;;;;;2.75;0.80;;;;;;;;;;5058793;28;20049;-43
2023/04/02 14:16:52;;;;;;;3.38;0.60;;;;;;;;;;5059947;28;20044;-41
2023/04/02 14:19:30;;;;;;;1.23;0.52;;;;;;;;;;5068489;28;20388;-42
2023/04/02 14:22:11;;;;;;;3.50;0.60;;;;;;;;;;5057118;28;20052;-44
2023/04/02 14:24:51;;;;;;;0.52;0.52;;;;;;;;;;5062123;28;20028;-40
2023/04/02 14:27:22;;;;;;;1.15;0.50;;;;;;;;;;5060018;28;20048;-47
2023/04/02 14:30:16;;;;;;;2.80;0.70;;;;;;;;;;5056597;28;20029;-40
2023/04/02 14:32:47;;;;;;;1.35;0.52;;;;;;;;;;5056972;28;20045;-48
2023/04/02 14:35:35;;;;;;;1.65;0.50;;;;;;;;;;5060424;28;20539;-39
2023/04/02 14:38:23;;;;;;;2.80;0.50;;;;;;;;;;5058112;28;20044;-41
2023/04/02 14:40:57;;;;;;;1.60;0.50;;;;;;;;;;5058885;28;20045;-40
2023/04/02 14:43:38;;;;;;;1.42;0.50;;;;;;;;;;5059355;28;20484;-40
2023/04/02 14:46:09;;;;;;;1.92;0.20;;;;;;;;;;5061285;28;20072;-43
2023/04/02 14:49:05;;;;;;;3.53;0.70;;;;;;;;;;5057741;28;20033;-43
2023/04/02 14:51:42;;;;;;;0.88;0.47;;;;;;;;;;5046137;28;20045;-43
2023/04/02 14:54:40;;;;;;;0.75;0.38;;;;;;;;;;5046054;28;20036;-40
2023/04/02 14:57:21;;;;;;;3.58;0.80;;;;;;;;;;5019482;28;20092;-40
2023/04/02 15:00:04;;;;;;;1.05;0.60;;;;;;;;;;5022763;28;20132;-40
2023/04/02 15:02:53;;;;;;;11.32;0.70;;;;;;;;;;5019497;28;20137;-40
2023/04/02 15:05:39;;;;;;;0.20;0.20;;;;;;;;;;5025702;28;20577;-41
2023/04/02 15:08:26;;;;;;;1.63;0.57;;;;;;;;;;5040404;28;20516;-40
2023/04/02 15:11:20;;;;;;;3.42;0.32;;;;;;;;;;5040812;28;20049;-42
2023/04/02 15:14:16;;;;;;;2.53;0.63;;;;;;;;;;5043950;28;20041;-41
2023/04/02 15:16:43;;;;;;;0.80;0.40;;;;;;;;;;5037926;28;20064;-42
2023/04/02 15:19:12;;;;;;;1.83;0.52;;;;;;;;;;5045142;28;20394;-41
2023/04/02 15:22:15;;;;;;;4.13;0.38;;;;;;;;;;5038579;28;20073;-43
2023/04/02 15:24:56;;;;;;;3.80;0.40;;;;;;;;;;5042137;28;20112;-41
2023/04/02 15:27:50;;;;;;;0.82;0.50;;;;;;;;;;5043167;28;20033;-44